Time;durP1;ratioP1;P1;durP2;ratioP2;P2;SDS_P1;SDS_P2;PMS_P1;PMS_P2;Temp;Humidity;BMP_temperature;BMP_pressure;BME280_temperature;BME280_humidity;BME280_pressure;Samples;Min_cycle;Max_cycle;Signal;HPM_P1;HPM_P2
2022/01/24 00:01:50;;;;;;;10.63;6.40;;;;;;;6.71;53.55;101302.13;5058941;28;20028;-79
2022/01/24 00:04:16;;;;;;;9.73;5.88;;;;;;;6.78;52.83;101301.69;5058264;28;20123;-78
2022/01/24 00:06:44;;;;;;;10.77;6.57;;;;;;;6.59;53.56;101292.69;5058815;28;20033;-79
2022/01/24 00:09:11;;;;;;;7.78;5.50;;;;;;;6.51;53.66;101302.53;5058886;28;20029;-80
2022/01/24 00:11:46;;;;;;;9.73;6.18;;;;;;;6.60;53.45;101314.50;5058536;28;20059;-79
2022/01/24 00:27:15;;;;;;;8.25;5.97;;;;;;;6.44;53.70;101294.63;5060195;28;20040;-79
2022/01/24 00:29:44;;;;;;;9.75;6.03;;;;;;;6.48;53.07;101308.66;5058674;28;20028;-80
2022/01/24 00:32:10;;;;;;;6.97;5.45;;;;;;;6.49;54.19;101308.34;5058960;28;20120;-79
2022/01/24 00:34:36;;;;;;;7.40;5.78;;;;;;;6.12;53.68;101251.34;5058719;28;20475;-79
2022/01/24 00:37:02;;;;;;;9.18;4.97;;;;;;;6.44;52.87;101302.13;5058256;28;20021;-79
2022/01/24 00:39:28;;;;;;;9.40;4.80;;;;;;;6.48;51.80;101308.66;5058240;28;20075;-79
2022/01/24 00:42:56;;;;;;;7.45;4.82;;;;;;;6.53;51.65;101303.03;5058448;28;20048;-80
2022/01/24 00:45:04;;;;;;;;;;;;;;;6.50;51.35;101300.91;5050920;28;20098;-79
2022/01/24 00:55:18;;;;;;;7.30;3.90;;;;;;;6.70;51.99;101300.44;5059808;28;20039;-79
2022/01/24 00:57:46;;;;;;;5.53;3.40;;;;;;;6.62;52.55;101292.91;5058725;28;20390;-79
2022/01/24 01:00:15;;;;;;;5.65;4.22;;;;;;;6.66;52.75;101299.44;5059626;28;20033;-78
2022/01/24 01:02:41;;;;;;;4.32;3.40;;;;;;;6.79;51.38;101297.78;5059517;28;20121;-79
2022/01/24 01:18:48;;;;;;;8.40;4.22;;;;;;;6.91;50.39;101283.41;5060371;28;20040;-79
2022/01/24 01:21:15;;;;;;;7.95;4.50;;;;;;;6.93;50.83;101287.50;5059991;28;20036;-79
2022/01/24 01:23:49;;;;;;;8.23;5.00;;;;;;;6.86;51.14;101276.03;5061152;28;20025;-80
2022/01/24 01:26:31;;;;;;;6.50;4.85;;;;;;;6.66;50.41;101241.38;5059959;28;20045;-79
2022/01/24 01:29:17;;;;;;;7.03;4.50;;;;;;;6.93;50.18;101276.44;5060135;28;20059;-80
2022/01/24 01:35:08;;;;;;;4.07;3.17;;;;;;;6.88;50.62;101275.75;5060422;28;20060;-80
2022/01/24 01:55:58;;;;;;;8.15;3.33;;;;;;;6.93;51.71;101223.06;5062069;28;19913;-79
2022/01/24 01:58:29;;;;;;;5.93;3.80;;;;;;;7.05;51.37;101251.81;5060141;28;20059;-80
2022/01/24 02:00:58;;;;;;;7.13;3.95;;;;;;;7.06;50.20;101242.38;5061175;28;20037;-80
2022/01/24 02:03:28;;;;;;;6.60;4.20;;;;;;;7.05;50.89;101251.00;5060504;28;20040;-80
2022/01/24 02:05:54;;;;;;;6.68;4.50;;;;;;;7.12;51.82;101245.81;5060824;28;20059;-78
2022/01/24 02:08:27;;;;;;;8.25;4.63;;;;;;;7.03;49.98;101245.78;5062574;28;20021;-80
2022/01/24 02:10:59;;;;;;;6.88;3.85;;;;;;;7.04;50.51;101241.88;5062206;28;20021;-80
2022/01/24 02:13:27;;;;;;;5.57;3.67;;;;;;;7.05;50.03;101234.38;5062804;28;20123;-79
2022/01/24 02:21:27;;;;;;;5.18;3.45;;;;;;;7.08;50.70;101222.66;5060848;28;20424;-80
2022/01/24 02:23:47;;;;;;;5.78;3.47;;;;;;;7.07;52.16;101215.50;5060215;28;20446;-80
2022/01/24 02:26:21;;;;;;;5.22;3.53;;;;;;;7.02;53.09;101207.31;5060877;28;20557;-80
2022/01/24 02:33:57;;;;;;;4.68;4.18;;;;;;;7.19;49.77;101224.09;5058730;28;20116;-80
2022/01/24 02:36:25;;;;;;;6.57;4.85;;;;;;;7.32;51.14;101214.88;5057141;28;20024;-79
2022/01/24 02:51:46;;;;;;;12.05;8.63;;;;;;;6.69;55.66;101226.91;5016109;28;20033;-80
2022/01/24 02:53:40;;;;;;;21.48;14.55;;;;;;;6.63;56.40;101238.41;5044960;28;20033;-79
2022/01/24 02:56:06;;;;;;;22.02;16.38;;;;;;;6.81;57.68;101241.00;5057391;28;20024;-79
2022/01/24 02:58:32;;;;;;;24.95;17.88;;;;;;;6.50;59.80;101242.84;5055408;28;20522;-80
2022/01/24 03:00:59;;;;;;;31.35;19.02;;;;;;;6.51;60.38;101248.06;5056289;28;20123;-80
2022/01/24 03:03:24;;;;;;;27.75;20.35;;;;;;;6.54;60.71;101264.00;5055575;28;20037;-79
2022/01/24 03:05:53;;;;;;;33.13;22.10;;;;;;;6.28;62.50;101249.09;5055910;28;20025;-79
2022/01/24 03:08:22;;;;;;;34.30;21.25;;;;;;;6.27;63.59;101259.31;5056077;28;20499;-80
2022/01/24 03:10:52;;;;;;;25.73;18.15;;;;;;;6.24;64.18;101254.44;5056886;28;20455;-78
2022/01/24 03:15:55;;;;;;;25.50;17.50;;;;;;;6.31;63.90;101245.72;5059030;28;20068;-81
2022/01/24 03:18:23;;;;;;;23.27;16.48;;;;;;;6.34;65.18;101250.63;5062253;28;20036;-79
2022/01/24 03:20:53;;;;;;;23.25;17.60;;;;;;;6.39;64.17;101255.22;5062517;28;20052;-80
2022/01/24 03:23:21;;;;;;;24.52;18.05;;;;;;;6.40;64.31;101240.28;5063921;28;20464;-80
2022/01/24 03:25:50;;;;;;;27.23;16.65;;;;;;;6.38;63.75;101253.59;5063783;28;20025;-78
2022/01/24 03:28:17;;;;;;;24.10;17.20;;;;;;;6.47;64.11;101243.44;5065340;28;20025;-79
2022/01/24 03:30:43;;;;;;;20.50;14.15;;;;;;;6.55;63.08;101239.94;5063543;28;20066;-79
2022/01/24 03:33:13;;;;;;;19.80;13.52;;;;;;;6.50;62.86;101248.38;5063482;28;20025;-78
2022/01/24 03:35:43;;;;;;;18.27;13.38;;;;;;;6.64;62.20;101234.50;5063098;28;20041;-78
2022/01/24 03:38:10;;;;;;;16.30;12.50;;;;;;;6.62;61.87;101232.06;5062352;28;20029;-80
2022/01/24 03:40:36;;;;;;;15.48;11.30;;;;;;;6.53;62.97;101239.44;5063079;28;20391;-79
2022/01/24 03:43:02;;;;;;;17.35;12.23;;;;;;;6.52;63.44;101243.34;5063630;28;20092;-79
2022/01/24 03:45:46;;;;;;;18.63;12.05;;;;;;;6.60;62.99;101245.34;5063943;28;20498;-79
2022/01/24 03:48:37;;;;;;;24.38;15.60;;;;;;;6.45;63.25;101262.31;5063003;28;20057;-79
2022/01/24 03:51:02;;;;;;;12.90;9.68;;;;;;;6.44;62.90;101252.34;5065122;28;20029;-79
2022/01/24 03:53:31;;;;;;;14.10;9.60;;;;;;;6.44;63.17;101263.41;5064810;28;20391;-79
2022/01/24 03:55:59;;;;;;;14.38;10.00;;;;;;;6.51;62.45;101255.53;5063236;28;20467;-78
2022/01/24 03:58:28;;;;;;;24.30;11.98;;;;;;;6.50;64.90;101251.13;5064082;28;20076;-80
2022/01/24 04:00:59;;;;;;;18.13;12.50;;;;;;;6.61;64.30;101258.06;5064862;28;20102;-80
2022/01/24 04:03:25;;;;;;;16.98;11.10;;;;;;;6.57;63.69;101251.53;5063968;28;20028;-79
2022/01/24 04:05:51;;;;;;;14.80;10.20;;;;;;;6.66;64.63;101260.75;5064696;28;20021;-78
2022/01/24 04:08:17;;;;;;;13.73;9.30;;;;;;;6.65;65.09;101261.03;5065477;28;20056;-81
2022/01/24 04:10:50;;;;;;;16.00;10.90;;;;;;;6.56;65.81;101258.19;5063658;28;20033;-79
2022/01/24 04:13:39;;;;;;;6.22;4.80;;;;;;;6.64;66.01;101249.16;5063846;28;20029;-79
2022/01/24 04:16:24;;;;;;;10.63;7.22;;;;;;;6.68;66.57;101260.41;5062649;28;20138;-79
2022/01/24 04:19:10;;;;;;;43.65;21.42;;;;;;;6.70;67.34;101245.13;5060617;28;20025;-78
2022/01/24 04:21:36;;;;;;;40.55;21.10;;;;;;;6.66;67.23;101252.44;5060970;28;20116;-78
2022/01/24 04:26:34;;;;;;;10.93;7.30;;;;;;;6.79;67.27;101248.00;5061661;28;20437;-80
2022/01/24 04:29:03;;;;;;;5.82;4.47;;;;;;;6.81;67.97;101241.00;5060952;28;20494;-79
2022/01/24 04:31:30;;;;;;;5.80;4.38;;;;;;;6.73;68.23;101255.59;5063918;28;20056;-80
2022/01/24 04:33:58;;;;;;;13.80;9.10;;;;;;;6.65;69.11;101236.94;5063579;28;20029;-80
2022/01/24 04:36:35;;;;;;;13.00;9.88;;;;;;;6.66;69.06;101249.69;5063970;28;20101;-79
2022/01/24 04:39:02;;;;;;;10.20;5.43;;;;;;;6.79;68.53;101242.47;5063066;28;20032;-79
2022/01/24 04:41:36;;;;;;;3.13;2.80;;;;;;;6.74;67.27;101248.91;5061561;28;20060;-79
2022/01/24 04:44:46;;;;;;;4.43;2.92;;;;;;;6.70;67.47;101245.13;5062049;28;20033;-79
2022/01/24 04:52:23;;;;;;;1.42;1.02;;;;;;;6.50;67.75;101242.84;5060818;28;20052;-78
2022/01/24 04:54:52;;;;;;;1.23;1.10;;;;;;;6.49;68.62;101253.06;5058287;28;20036;-80
2022/01/24 04:57:25;;;;;;;2.03;1.40;;;;;;;6.47;69.09;101248.97;5059510;28;20029;-81
2022/01/24 04:59:55;;;;;;;1.67;1.40;;;;;;;6.46;68.80;101244.59;5058611;28;20139;-79
2022/01/24 05:02:22;;;;;;;1.27;1.17;;;;;;;6.17;69.58;101214.50;5058656;28;20426;-80
2022/01/24 05:04:56;;;;;;;1.58;1.20;;;;;;;6.43;69.70;101253.47;5058634;28;20025;-79
2022/01/24 05:07:22;;;;;;;0.73;0.73;;;;;;;6.42;68.21;101244.38;5059525;28;20467;-79
2022/01/24 05:10:05;;;;;;;1.55;1.17;;;;;;;6.47;68.19;101248.97;5060047;28;20478;-78
2022/01/24 05:23:35;;;;;;;1.63;1.10;;;;;;;6.48;68.48;101245.91;5058526;28;20043;-81
2022/01/24 05:26:07;;;;;;;1.95;1.65;;;;;;;6.45;68.34;101243.78;5057857;28;20430;-79
2022/01/24 05:28:34;;;;;;;5.82;3.13;;;;;;;6.42;68.70;101244.38;5056610;28;20025;-78
2022/01/24 05:31:01;;;;;;;5.22;2.95;;;;;;;6.30;68.78;101253.19;5056387;28;20024;-78
2022/01/24 05:33:28;;;;;;;2.33;1.55;;;;;;;6.39;67.89;101255.22;5058501;28;20124;-80
2022/01/24 05:35:54;;;;;;;1.70;0.98;;;;;;;6.45;66.30;101251.25;5058265;28;20025;-78
2022/01/24 05:38:23;;;;;;;1.65;0.93;;;;;;;6.44;66.11;101255.13;5058374;28;20032;-80
2022/01/24 05:40:50;;;;;;;1.40;1.30;;;;;;;6.47;66.54;101257.28;5058792;28;20027;-81
2022/01/24 05:43:18;;;;;;;1.23;1.13;;;;;;;6.41;66.64;101269.56;5058364;28;20068;-78
2022/01/24 05:45:44;;;;;;;4.32;1.85;;;;;;;6.38;67.21;101270.19;5055881;28;20036;-80
2022/01/24 05:48:10;;;;;;;1.88;1.30;;;;;;;6.42;67.81;101277.53;5056981;28;20035;-80
2022/01/24 05:50:38;;;;;;;2.88;1.00;;;;;;;6.40;68.16;101284.53;5056513;28;20404;-80
2022/01/24 05:53:07;;;;;;;1.73;1.58;;;;;;;6.35;68.70;101276.34;5059645;28;20562;-80
2022/01/24 05:55:39;;;;;;;3.33;1.52;;;;;;;6.37;68.44;101276.84;5059565;28;20033;-79
2022/01/24 05:58:09;;;;;;;2.38;1.70;;;;;;;6.36;69.38;101277.97;5060483;28;20048;-80
2022/01/24 06:00:35;;;;;;;1.48;1.15;;;;;;;6.29;69.07;101268.16;5061829;28;20021;-78
2022/01/24 06:03:01;;;;;;;2.45;1.48;;;;;;;6.19;69.63;101267.53;5063446;28;20029;-79
2022/01/24 06:05:32;;;;;;;1.10;0.80;;;;;;;6.18;69.21;101261.19;5060488;28;20040;-78
2022/01/24 06:08:04;;;;;;;1.10;0.85;;;;;;;6.14;68.64;101271.22;5059347;28;20033;-79
2022/01/24 06:10:32;;;;;;;4.22;1.27;;;;;;;6.16;68.44;101268.13;5056921;28;20029;-78
2022/01/24 06:12:57;;;;;;;1.48;1.00;;;;;;;6.14;68.53;101271.22;5053666;28;20032;-78
2022/01/24 06:15:26;;;;;;;1.38;1.00;;;;;;;6.15;67.96;101266.50;5055058;28;20184;-79
2022/01/24 06:18:01;;;;;;;0.90;0.80;;;;;;;6.16;67.94;101271.72;5053450;28;20025;-79
2022/01/24 06:20:32;;;;;;;1.80;1.40;;;;;;;6.05;68.46;101253.69;5053466;28;20083;-78
2022/01/24 06:22:58;;;;;;;4.28;1.30;;;;;;;6.11;67.90;101269.06;5053971;28;20430;-78
2022/01/24 06:25:32;;;;;;;0.80;0.80;;;;;;;6.10;68.59;101270.19;5053931;28;20086;-78
2022/01/24 06:28:00;;;;;;;0.85;0.82;;;;;;;6.13;67.90;101277.06;5053770;28;20029;-79
2022/01/24 06:30:26;;;;;;;2.80;0.88;;;;;;;6.12;68.13;101278.97;5053709;28;20430;-79
2022/01/24 06:32:52;;;;;;;2.15;0.88;;;;;;;6.13;68.38;101280.63;5053147;28;20029;-77
2022/01/24 06:35:17;;;;;;;0.80;0.80;;;;;;;6.16;68.73;101285.53;5054097;28;20037;-78
2022/01/24 06:37:43;;;;;;;4.38;1.30;;;;;;;6.12;68.79;101284.50;5053679;28;20123;-79
2022/01/24 06:40:12;;;;;;;3.10;1.42;;;;;;;6.09;68.68;101292.59;5054370;28;20448;-79
2022/01/24 06:42:41;;;;;;;3.22;1.40;;;;;;;6.09;68.60;101290.66;5054943;28;20033;-79
2022/01/24 06:45:11;;;;;;;2.30;1.42;;;;;;;6.14;68.87;101304.38;5053624;28;20100;-79
2022/01/24 06:47:44;;;;;;;4.80;3.47;;;;;;;6.16;68.49;101295.78;5055298;28;20060;-79
2022/01/24 06:50:13;;;;;;;2.33;1.95;;;;;;;6.17;68.55;101294.63;5054620;28;20082;-77
2022/01/24 06:52:38;;;;;;;5.13;2.60;;;;;;;6.15;68.69;101294.94;5058655;28;20036;-79
2022/01/24 06:55:10;;;;;;;6.72;2.95;;;;;;;6.12;68.40;101281.72;5060584;28;20029;-79
2022/01/24 06:57:44;;;;;;;2.97;1.90;;;;;;;6.23;67.26;101285.97;5061501;28;20099;-79
2022/01/24 07:00:11;;;;;;;8.15;4.68;;;;;;;6.27;66.93;101300.78;5058370;28;20049;-79
2022/01/24 07:02:36;;;;;;;4.85;3.30;;;;;;;6.27;67.20;101302.72;5041467;28;20037;-78
2022/01/24 07:05:07;;;;;;;6.68;2.85;;;;;;;6.17;67.45;101289.09;5057684;28;20174;-78
2022/01/24 07:07:33;;;;;;;6.72;3.95;;;;;;;6.30;67.69;101297.41;5056897;28;20097;-78
2022/01/24 07:10:00;;;;;;;2.45;2.00;;;;;;;6.19;66.10;101295.97;5057345;28;20037;-78
2022/01/24 07:12:26;;;;;;;4.07;2.75;;;;;;;6.26;65.49;101296.38;5056924;28;20056;-79
2022/01/24 07:15:07;;;;;;;8.02;2.28;;;;;;;6.26;66.08;101304.69;5056779;28;20063;-78
2022/01/24 07:17:59;;;;;;;2.45;1.70;;;;;;;6.22;66.47;101289.00;5057019;28;20029;-79
2022/01/24 07:20:21;;;;;;;9.18;2.75;;;;;;;6.14;66.62;101281.44;5057547;28;20041;-78
2022/01/24 07:22:52;;;;;;;2.55;1.95;;;;;;;6.18;66.79;101283.31;5056497;28;20037;-77
2022/01/24 07:25:20;;;;;;;6.00;4.10;;;;;;;6.18;66.99;101272.25;5056633;28;20090;-77
2022/01/24 07:27:48;;;;;;;28.00;13.90;;;;;;;6.22;66.49;101295.34;5057848;28;20033;-78
2022/01/24 07:30:14;;;;;;;8.70;4.60;;;;;;;6.23;65.71;101315.50;5056441;28;20029;-77
2022/01/24 07:32:43;;;;;;;5.40;4.13;;;;;;;6.30;65.95;101311.25;5056834;28;20101;-78
2022/01/24 07:35:11;;;;;;;5.07;3.70;;;;;;;6.42;66.11;101332.03;5057810;28;20033;-78
2022/01/24 07:37:43;;;;;;;7.57;4.80;;;;;;;6.42;66.17;101321.78;5057151;28;20025;-78
2022/01/24 07:40:13;;;;;;;5.28;3.20;;;;;;;6.44;66.17;101315.94;5058677;28;20093;-78
2022/01/24 07:45:26;;;;;;;4.40;2.67;;;;;;;6.51;66.69;101319.13;5058770;28;20047;-78
2022/01/24 07:47:52;;;;;;;6.30;2.95;;;;;;;6.49;66.77;101315.84;5057873;28;20029;-78
2022/01/24 07:50:24;;;;;;;2.10;1.70;;;;;;;6.33;66.86;101307.03;5057846;28;20029;-79
2022/01/24 07:52:53;;;;;;;4.80;2.92;;;;;;;6.24;67.30;101306.94;5060207;28;20032;-78
2022/01/24 07:55:28;;;;;;;5.82;3.92;;;;;;;6.33;66.97;101306.22;5058757;28;20118;-78
2022/01/24 07:57:56;;;;;;;7.85;4.88;;;;;;;6.41;67.82;101319.34;5058907;28;20029;-79
2022/01/24 08:00:22;;;;;;;9.10;3.83;;;;;;;6.49;66.05;101315.84;5056701;28;20049;-78
2022/01/24 08:02:48;;;;;;;5.93;3.42;;;;;;;6.43;66.31;101328.13;5055117;28;20028;-78
2022/01/24 08:05:17;;;;;;;4.57;3.65;;;;;;;6.51;66.00;101324.66;5056805;28;20388;-78
2022/01/24 08:07:42;;;;;;;5.50;2.40;;;;;;;6.45;66.01;101320.38;5056702;28;20029;-78
2022/01/24 08:10:09;;;;;;;4.68;2.38;;;;;;;6.51;66.18;101319.13;5056557;28;20112;-78
2022/01/24 08:12:35;;;;;;;8.57;4.88;;;;;;;6.56;65.15;101321.78;5057946;28;20107;-78
2022/01/24 08:15:03;;;;;;;4.28;3.25;;;;;;;6.60;64.78;101328.31;5057749;28;20032;-78
2022/01/24 08:17:35;;;;;;;4.40;2.50;;;;;;;6.67;63.93;101330.69;5056991;28;20025;-78
2022/01/24 08:20:01;;;;;;;2.17;1.88;;;;;;;6.75;64.21;101330.78;5056481;28;20151;-78
2022/01/24 08:22:29;;;;;;;5.53;1.95;;;;;;;6.74;63.60;101320.84;5056024;28;20052;-79
2022/01/24 08:24:57;;;;;;;6.30;1.85;;;;;;;6.81;64.38;101324.00;5056842;28;20029;-79
2022/01/24 08:27:25;;;;;;;3.55;1.77;;;;;;;6.83;63.82;101329.22;5056908;28;20021;-78
2022/01/24 08:29:54;;;;;;;3.38;1.67;;;;;;;6.80;63.84;101325.13;5057053;28;20044;-78
2022/01/24 08:32:25;;;;;;;7.10;2.35;;;;;;;6.85;63.60;101329.72;5058346;28;20059;-78
2022/01/24 08:34:56;;;;;;;13.35;6.03;;;;;;;6.90;63.86;101337.09;5057669;28;20040;-79
2022/01/24 08:56:41;;;;;;;20.70;12.30;;;;;;;6.83;63.27;101337.53;5095121;22;1591590;-73
2022/01/24 08:59:07;;;;;;;13.02;7.30;;;;;;;6.96;60.92;101333.09;5093417;28;20131;-73
2022/01/24 09:01:34;;;;;;;17.13;11.80;;;;;;;7.11;58.96;101341.06;5093297;28;20061;-73
2022/01/24 09:04:00;;;;;;;15.77;7.57;;;;;;;7.25;58.62;101335.50;5093959;28;20092;-73
2022/01/24 09:06:28;;;;;;;7.78;5.32;;;;;;;7.25;58.91;101344.63;5095445;28;20062;-73
2022/01/24 09:08:58;;;;;;;8.23;6.78;;;;;;;7.30;58.87;101346.44;5095145;28;20120;-71
2022/01/24 09:11:28;;;;;;;11.23;4.57;;;;;;;7.39;56.90;101344.56;5093633;28;20389;-71
2022/01/24 09:13:53;;;;;;;5.25;3.53;;;;;;;7.52;55.49;101345.66;5111468;28;20034;-71
2022/01/24 09:16:19;;;;;;;2.88;1.88;;;;;;;7.55;52.31;101347.78;5093469;28;20024;-72
2022/01/24 09:18:45;;;;;;;5.82;1.92;;;;;;;7.64;51.44;101328.47;5093058;28;20382;-73
2022/01/24 09:21:10;;;;;;;5.88;1.77;;;;;;;7.72;50.85;101347.91;5093323;28;20053;-74
2022/01/24 09:23:36;;;;;;;4.63;3.13;;;;;;;7.78;51.01;101348.63;5094662;28;20024;-71
2022/01/24 09:26:02;;;;;;;3.22;2.28;;;;;;;7.84;51.32;101339.03;5093305;28;20020;-72
2022/01/24 09:28:27;;;;;;;6.95;1.95;;;;;;;7.87;51.33;101355.00;5093604;28;20032;-71
2022/01/24 09:30:53;;;;;;;2.67;2.03;;;;;;;7.61;49.36;101324.34;5093172;28;20483;-70
2022/01/24 09:33:19;;;;;;;2.47;1.80;;;;;;;7.86;49.53;101342.28;5092991;28;20538;-71
2022/01/24 09:35:45;;;;;;;1.58;1.38;;;;;;;7.96;49.25;101349.53;5092455;28;20020;-72
2022/01/24 09:38:12;;;;;;;3.38;2.25;;;;;;;7.92;48.63;101340.22;5092631;28;20043;-72
2022/01/24 09:40:38;;;;;;;2.42;1.63;;;;;;;7.94;48.87;101351.81;5092964;28;20486;-72
2022/01/24 09:43:05;;;;;;;4.22;1.92;;;;;;;7.85;48.93;101351.75;5092557;28;20053;-72
2022/01/24 09:45:31;;;;;;;2.58;1.80;;;;;;;7.77;50.25;101355.25;5092458;28;20035;-71
2022/01/24 09:47:58;;;;;;;2.25;2.15;;;;;;;7.81;50.22;101367.38;5093049;28;20023;-72
2022/01/24 09:50:24;;;;;;;5.38;3.55;;;;;;;7.75;50.68;101352.81;5092422;28;20035;-72
2022/01/24 09:52:50;;;;;;;4.82;4.20;;;;;;;7.65;50.36;101363.34;5092569;28;20036;-71
2022/01/24 09:55:19;;;;;;;8.77;2.95;;;;;;;7.70;51.15;101388.16;5091903;28;20051;-72
2022/01/24 09:57:47;;;;;;;5.80;3.85;;;;;;;7.62;51.83;101381.41;5076164;28;20043;-72
2022/01/24 10:00:16;;;;;;;8.32;4.00;;;;;;;7.65;51.01;101377.19;5110190;28;20028;-72
2022/01/24 10:02:46;;;;;;;5.68;3.78;;;;;;;7.59;51.47;101371.78;5092369;28;20059;-72
2022/01/24 10:05:37;;;;;;;13.55;7.85;;;;;;;7.61;51.81;101369.50;5110136;28;20032;-72
2022/01/24 10:08:05;;;;;;;13.43;8.35;;;;;;;7.77;51.51;101383.78;5078433;28;20028;-72
2022/01/24 10:10:45;;;;;;;16.05;8.95;;;;;;;7.72;51.95;101372.84;5078637;28;20044;-71
2022/01/24 10:16:30;;;;;;;25.42;19.90;;;;;;;7.90;52.08;101370.19;5096479;28;20204;-71
2022/01/24 10:19:06;;;;;;;13.32;9.43;;;;;;;7.90;52.30;101370.19;5078478;28;20020;-71
2022/01/24 10:22:00;;;;;;;14.52;9.05;;;;;;;7.88;50.62;101360.25;5078921;28;20028;-71
2022/01/24 10:24:46;;;;;;;7.63;3.38;;;;;;;7.87;50.16;101378.00;5096203;28;20481;-72
2022/01/24 10:27:27;;;;;;;6.93;3.97;;;;;;;7.87;51.63;101361.38;5078957;28;20033;-71
2022/01/24 10:29:56;;;;;;;6.63;3.25;;;;;;;7.90;51.48;101367.44;5078328;28;20527;-70
2022/01/24 10:32:36;;;;;;;11.45;4.25;;;;;;;7.88;52.13;101363.03;5078175;28;20028;-72
2022/01/24 10:35:23;;;;;;;8.32;2.75;;;;;;;7.87;51.13;101366.09;5078404;28;20024;-72
2022/01/24 10:37:53;;;;;;;5.55;3.47;;;;;;;7.80;51.56;101361.00;5078563;28;20032;-71
2022/01/24 10:40:47;;;;;;;6.75;4.72;;;;;;;7.81;50.75;101357.09;5096457;28;20063;-72
2022/01/24 10:43:24;;;;;;;14.77;8.63;;;;;;;7.78;51.80;101363.28;5078779;28;20373;-71
2022/01/24 10:45:57;;;;;;;7.13;4.28;;;;;;;7.84;51.08;101362.03;5078056;28;20115;-73
2022/01/24 10:48:34;;;;;;;11.02;8.02;;;;;;;7.92;51.05;101367.91;5096243;28;20110;-73
2022/01/24 10:51:21;;;;;;;6.43;3.63;;;;;;;7.86;50.65;101373.59;5095688;28;20498;-72
2022/01/24 10:53:54;;;;;;;3.53;3.15;;;;;;;7.93;50.71;101364.00;5077693;28;20051;-73
2022/01/24 10:56:49;;;;;;;8.70;4.57;;;;;;;8.05;50.99;101364.28;5077640;28;20048;-72
2022/01/24 10:59:16;;;;;;;9.88;7.82;;;;;;;8.14;50.40;101354.03;5056041;28;20043;-72
2022/01/24 11:01:49;;;;;;;6.28;3.22;;;;;;;8.12;47.45;101351.59;5078238;28;20039;-71
2022/01/24 11:04:18;;;;;;;9.05;3.67;;;;;;;8.11;48.71;101351.91;5077571;28;20478;-72
2022/01/24 11:06:50;;;;;;;9.93;6.10;;;;;;;8.18;48.53;101346.72;5077473;28;20481;-71
2022/01/24 11:09:23;;;;;;;9.63;4.82;;;;;;;8.20;46.74;101363.84;5077373;28;20122;-71
2022/01/24 11:12:10;;;;;;;6.72;3.95;;;;;;;8.11;46.92;101335.28;5077365;28;20039;-72
2022/01/24 11:14:40;;;;;;;4.95;3.53;;;;;;;8.12;45.89;101348.00;5095682;28;20020;-72
2022/01/24 11:17:09;;;;;;;5.32;4.03;;;;;;;8.17;47.02;101347.88;5095494;28;20584;-71
2022/01/24 11:22:05;;;;;;;9.38;7.05;;;;;;;8.18;45.87;101338.41;5095327;28;20090;-71
2022/01/24 11:24:45;;;;;;;8.25;6.30;;;;;;;8.22;46.04;101333.88;5077375;28;20508;-72
2022/01/24 11:27:11;;;;;;;8.27;4.75;;;;;;;8.14;46.54;101327.13;5077073;28;20474;-73
2022/01/24 11:29:37;;;;;;;5.07;3.42;;;;;;;8.12;45.65;101328.59;5077060;28;20028;-73
2022/01/24 11:32:38;;;;;;;10.65;5.53;;;;;;;8.03;44.33;101314.69;5076973;28;20066;-71
2022/01/24 11:35:05;;;;;;;4.57;3.10;;;;;;;8.13;43.75;101333.00;5059176;28;20032;-71
2022/01/24 11:37:45;;;;;;;12.55;6.80;;;;;;;8.19;43.42;101304.00;5095323;28;20032;-71
2022/01/24 11:40:17;;;;;;;10.43;5.57;;;;;;;8.13;43.29;101324.69;5095120;28;20084;-71
2022/01/24 11:42:46;;;;;;;7.72;4.05;;;;;;;7.99;43.80;101326.72;5095457;28;20028;-71
2022/01/24 11:45:18;;;;;;;7.63;4.28;;;;;;;7.86;43.95;101314.59;5076679;28;20101;-71
2022/01/24 11:47:46;;;;;;;9.82;6.25;;;;;;;7.75;44.17;101319.56;5076663;28;20032;-71
2022/01/24 11:50:31;;;;;;;17.17;8.88;;;;;;;7.99;44.66;101323.94;5076900;28;20036;-71
2022/01/24 11:52:58;;;;;;;13.27;6.80;;;;;;;8.06;45.21;101338.19;5076583;28;20024;-72
2022/01/24 11:55:36;;;;;;;8.70;4.40;;;;;;;8.03;45.39;101324.94;5076737;28;20020;-71
2022/01/24 11:58:06;;;;;;;7.65;4.07;;;;;;;8.08;43.95;101324.81;5076815;28;20380;-71
2022/01/24 12:00:39;;;;;;;6.32;3.33;;;;;;;8.12;44.41;101311.97;5076989;28;20527;-71
2022/01/24 12:03:20;;;;;;;13.52;5.93;;;;;;;8.23;44.08;101312.50;5060308;28;20478;-71
2022/01/24 12:05:50;;;;;;;9.02;5.13;;;;;;;8.22;43.97;101311.69;5094283;28;20085;-71
2022/01/24 12:08:35;;;;;;;10.00;4.60;;;;;;;8.18;42.66;101284.91;5095028;28;20028;-70
2022/01/24 12:11:22;;;;;;;6.18;3.03;;;;;;;8.30;43.57;101302.56;5076627;28;20470;-71
2022/01/24 12:13:56;;;;;;;3.58;2.80;;;;;;;8.25;42.67;101296.34;5076289;28;20024;-71
2022/01/24 12:16:34;;;;;;;6.00;4.10;;;;;;;8.32;41.65;101286.44;5094607;28;20466;-71
2022/01/24 12:19:02;;;;;;;4.43;3.35;;;;;;;8.14;41.88;101287.50;5076183;28;20039;-71
2022/01/24 12:21:29;;;;;;;6.22;2.63;;;;;;;8.14;41.92;101279.19;5076122;28;20478;-71
2022/01/24 12:24:13;;;;;;;10.00;5.45;;;;;;;8.09;40.70;101271.00;5076330;28;20482;-71
2022/01/24 12:26:40;;;;;;;;;;;;;;;8.14;40.55;101266.13;5077335;28;20032;-72
2022/01/24 12:29:14;;;;;;;2.30;2.10;;;;;;;8.19;41.18;101265.19;5078988;28;19908;-72
2022/01/24 12:31:44;;;;;;;6.03;5.25;;;;;;;8.23;41.45;101255.09;5080522;28;20025;-71
2022/01/24 12:34:17;;;;;;;5.43;3.78;;;;;;;8.26;41.47;101278.59;5076126;28;20035;-71
2022/01/24 12:37:00;;;;;;;5.78;2.97;;;;;;;8.46;41.90;101266.09;5076482;28;20024;-73
2022/01/24 12:39:48;;;;;;;5.35;3.13;;;;;;;8.43;41.18;101261.22;5076737;28;20427;-73
2022/01/24 12:42:27;;;;;;;9.68;4.18;;;;;;;8.36;40.56;101268.06;5075907;28;20028;-73
2022/01/24 12:47:37;;;;;;;6.50;3.08;;;;;;;8.40;41.07;101257.94;5094533;28;20128;-73
2022/01/24 12:50:04;;;;;;;11.20;6.07;;;;;;;8.52;40.59;101264.81;5076051;28;20055;-72
2022/01/24 12:52:29;;;;;;;3.03;1.88;;;;;;;8.49;40.56;101268.25;5076755;28;20073;-73
2022/01/24 12:55:00;;;;;;;5.20;2.58;;;;;;;8.56;40.64;101265.81;5075971;28;20428;-72
2022/01/24 12:57:32;;;;;;;2.83;2.15;;;;;;;8.60;40.73;101272.34;5071922;28;20080;-73
2022/01/24 13:00:10;;;;;;;4.07;2.63;;;;;;;8.50;40.14;101283.75;5072346;28;20031;-73
2022/01/24 13:02:38;;;;;;;3.17;2.20;;;;;;;8.34;39.31;101280.56;5072335;28;20127;-73
2022/01/24 13:05:12;;;;;;;11.43;5.18;;;;;;;8.28;39.04;101271.56;5072309;28;20028;-73
2022/01/24 13:07:40;;;;;;;1.95;1.55;;;;;;;8.12;38.86;101254.56;5072883;28;20089;-73
2022/01/24 13:10:16;;;;;;;6.03;2.38;;;;;;;8.29;39.59;101267.66;5072312;28;20021;-73
2022/01/24 13:12:43;;;;;;;3.45;1.95;;;;;;;8.22;39.45;101267.31;5072255;28;20032;-73
2022/01/24 13:15:25;;;;;;;6.60;4.38;;;;;;;8.14;39.37;101270.88;5073124;28;20024;-73
2022/01/24 13:21:06;;;;;;;2.17;1.90;;;;;;;8.27;39.01;101272.72;5073976;28;20106;-73
2022/01/24 13:23:28;;;;;;;4.18;2.70;;;;;;;8.25;39.09;101257.53;5073220;28;20032;-73
2022/01/24 13:25:54;;;;;;;5.55;2.80;;;;;;;8.44;39.92;101271.19;5072374;28;20143;-72
2022/01/24 13:28:20;;;;;;;4.97;3.05;;;;;;;8.48;39.72;101278.53;5031285;22;20129;-78
2022/01/24 13:31:04;;;;;;;6.00;2.50;;;;;;;8.50;39.77;101278.19;5017007;28;20068;-79
2022/01/24 13:33:32;;;;;;;4.20;2.78;;;;;;;8.42;39.60;101276.25;5034071;28;20479;-78
2022/01/24 13:36:03;;;;;;;2.40;1.60;;;;;;;8.32;38.97;101275.34;5016615;28;20052;-77
2022/01/24 13:38:33;;;;;;;5.90;3.35;;;;;;;8.47;38.65;101289.94;5017517;28;20029;-78
2022/01/24 13:41:13;;;;;;;4.60;3.45;;;;;;;8.39;38.03;101288.78;5035162;28;20146;-79
2022/01/24 13:43:44;;;;;;;6.82;3.22;;;;;;;8.55;38.58;101287.19;5021641;28;20053;-79
2022/01/24 13:46:23;;;;;;;7.20;4.10;;;;;;;8.57;38.83;101287.66;5021173;28;20430;-79
2022/01/24 13:49:02;;;;;;;5.97;3.75;;;;;;;8.73;38.09;101292.78;5020654;28;20029;-76
2022/01/24 13:51:34;;;;;;;7.82;3.47;;;;;;;8.56;38.38;101282.44;5003416;28;20044;-78
2022/01/24 13:54:01;;;;;;;7.82;2.78;;;;;;;8.65;38.82;101308.28;5019802;28;20064;-78
2022/01/24 13:56:33;;;;;;;9.43;5.63;;;;;;;8.57;38.76;101311.81;5020037;28;20340;-76
2022/01/24 13:59:12;;;;;;;4.75;3.50;;;;;;;8.56;38.15;101285.22;5019409;28;20471;-76
2022/01/24 14:01:51;;;;;;;6.80;3.63;;;;;;;8.72;37.86;101291.97;5019511;28;20087;-76
2022/01/24 14:04:43;;;;;;;7.30;4.78;;;;;;;8.90;37.84;101284.50;5037281;28;20025;-77